Terminal Aerodrome Forecast
Issued by NWS

Home | Current Version | Previous Version | Text Only | Print | Product List | Glossary On
Versions: 1 2 3 4 5 6 7 8 9 10 11 12 13 14 15 16 17 18 19
000
FTUS43 KMQT 231311 AAA
TAFCMX
TAF AMD
KCMX 231311Z 2313/2412 04009KT 1SM -SN OVC015
     FM231400 03009KT 3SM -SN OVC025
     FM231500 03009KT 6SM -SHSN OVC035
     FM231700 04008KT P6SM BKN090
     FM240300 10005KT P6SM VCSH OVC060
     FM240600 09006KT P6SM OVC050=

USA.gov is the U.S. government's official web portal to all federal, state and local government web resources and services.